createdAt,value
2022-11-09T00:01:46.227Z,10.10
2022-11-09T00:04:15.489Z,10.20
2022-11-09T00:06:42.249Z,10.10
2022-11-09T00:09:09.838Z,10.20
2022-11-09T00:11:37.884Z,10.10
2022-11-09T00:14:04.657Z,10.10
2022-11-09T00:16:31.395Z,10.20
2022-11-09T00:18:58.748Z,10.00
2022-11-09T00:21:27.943Z,10.00
2022-11-09T00:23:56.893Z,10.00
2022-11-09T00:26:23.731Z,10.00
2022-11-09T00:28:50.716Z,10.00
2022-11-09T00:31:21.467Z,9.90
2022-11-09T00:33:49.672Z,10.00
2022-11-09T00:36:19.346Z,10.00
2022-11-09T00:38:51.832Z,10.00
2022-11-09T00:41:18.735Z,9.90
2022-11-09T00:43:47.641Z,10.00
2022-11-09T00:46:14.594Z,9.90
2022-11-09T00:48:43.635Z,9.90
2022-11-09T00:51:10.547Z,9.90
2022-11-09T00:53:42.877Z,10.00
2022-11-09T00:56:13.350Z,9.90
2022-11-09T00:58:41.029Z,9.90
2022-11-09T01:01:12.400Z,9.80
2022-11-09T01:03:39.268Z,9.80
2022-11-09T01:06:08.808Z,9.80
2022-11-09T01:08:35.761Z,9.80
2022-11-09T01:11:06.734Z,9.90
2022-11-09T01:13:33.450Z,9.80
2022-11-09T01:16:00.197Z,9.80
2022-11-09T01:18:26.897Z,9.80
2022-11-09T01:20:53.694Z,9.70
2022-11-09T01:23:21.521Z,9.80
2022-11-09T01:25:48.322Z,9.80
2022-11-09T01:28:15.040Z,9.80
2022-11-09T01:30:44.968Z,9.80
2022-11-09T01:33:11.995Z,9.80
2022-11-09T01:35:41.930Z,9.80
2022-11-09T01:38:08.935Z,9.80
2022-11-09T01:40:39.217Z,9.80
2022-11-09T01:43:07.541Z,9.90
2022-11-09T01:45:36.838Z,9.80
2022-11-09T01:48:11.808Z,9.80
2022-11-09T01:50:40.485Z,9.80
2022-11-09T01:53:09.360Z,9.80
2022-11-09T01:55:38.290Z,9.80
2022-11-09T01:58:10.046Z,9.70
2022-11-09T02:00:39.024Z,9.70
2022-11-09T02:03:15.822Z,9.70
2022-11-09T02:05:44.724Z,9.70
2022-11-09T02:08:12.805Z,9.70
2022-11-09T02:10:46.268Z,9.70
2022-11-09T02:13:13.850Z,9.70
2022-11-09T02:15:45.444Z,9.60
2022-11-09T02:18:12.723Z,9.60
2022-11-09T02:20:54.832Z,9.60
2022-11-09T02:23:21.902Z,9.60
2022-11-09T02:25:53.579Z,9.60
2022-11-09T02:28:24.959Z,9.60
2022-11-09T02:30:52.521Z,9.60
2022-11-09T02:33:19.557Z,9.60
2022-11-09T02:35:46.450Z,9.50
2022-11-09T02:38:15.726Z,9.50
2022-11-09T02:40:47.019Z,9.40
2022-11-09T02:43:16.361Z,9.50
2022-11-09T02:45:43.161Z,9.50
2022-11-09T02:48:09.952Z,9.50
2022-11-09T02:50:38.862Z,9.50
2022-11-09T02:53:05.650Z,9.50
2022-11-09T02:55:33.527Z,9.50
2022-11-09T02:58:00.314Z,9.50
2022-11-09T03:00:27.021Z,9.60
2022-11-09T03:02:56.211Z,9.50
2022-11-09T03:05:23.311Z,9.50
2022-11-09T03:07:50.133Z,9.50
2022-11-09T03:10:19.156Z,9.50
2022-11-09T03:12:45.835Z,9.50
2022-11-09T03:15:12.605Z,9.50
2022-11-09T03:17:41.538Z,9.50
2022-11-09T03:20:08.974Z,9.50
2022-11-09T03:22:38.347Z,9.50
2022-11-09T03:25:07.829Z,9.50
2022-11-09T03:27:34.599Z,9.40
2022-11-09T03:30:03.884Z,9.40
2022-11-09T03:32:30.586Z,9.40
2022-11-09T03:34:59.753Z,9.40
2022-11-09T03:37:26.535Z,9.40
2022-11-09T03:39:53.260Z,9.40
2022-11-09T03:42:22.190Z,9.40
2022-11-09T03:44:48.933Z,9.40
2022-11-09T03:47:17.792Z,9.40
2022-11-09T03:49:44.549Z,9.40
2022-11-09T03:52:11.345Z,9.40
2022-11-09T03:54:38.061Z,9.40
2022-11-09T03:57:04.813Z,9.40
2022-11-09T03:59:31.866Z,9.40
2022-11-09T04:02:00.815Z,9.40
2022-11-09T04:04:27.631Z,9.40
2022-11-09T04:06:57.334Z,9.40
2022-11-09T04:09:24.039Z,9.40
2022-11-09T04:11:50.801Z,9.40
2022-11-09T04:14:17.528Z,9.40
2022-11-09T04:16:46.461Z,9.40
2022-11-09T04:19:15.653Z,9.40
2022-11-09T04:21:42.455Z,9.40
2022-11-09T04:24:13.881Z,9.40
2022-11-09T04:26:40.571Z,9.40
2022-11-09T04:29:07.299Z,9.40
2022-11-09T04:31:36.266Z,9.40
2022-11-09T04:34:07.962Z,9.30
2022-11-09T04:36:36.922Z,9.40
2022-11-09T04:39:03.728Z,9.40
2022-11-09T04:41:30.430Z,9.40
2022-11-09T04:44:00.001Z,9.40
2022-11-09T04:46:29.096Z,9.30
2022-11-09T04:48:58.208Z,9.30
2022-11-09T04:51:27.149Z,9.20
2022-11-09T04:53:56.578Z,9.20
2022-11-09T04:56:25.823Z,9.30
2022-11-09T04:58:52.645Z,9.30
2022-11-09T05:01:21.860Z,9.30
2022-11-09T05:03:50.882Z,9.30
2022-11-09T05:06:33.070Z,9.30
2022-11-09T05:09:06.760Z,9.20
2022-11-09T05:11:34.324Z,9.20
2022-11-09T05:14:01.235Z,9.20
2022-11-09T05:16:31.111Z,9.20
2022-11-09T05:18:57.833Z,9.20
2022-11-09T05:21:24.568Z,9.20
2022-11-09T05:24:00.547Z,9.10
2022-11-09T05:26:31.280Z,9.10
2022-11-09T05:28:59.286Z,9.20
2022-11-09T05:31:28.654Z,9.10
2022-11-09T05:34:00.109Z,9.10
2022-11-09T05:36:27.971Z,9.10
2022-11-09T05:38:54.764Z,9.10
2022-11-09T05:41:23.660Z,9.10
2022-11-09T05:43:52.621Z,9.10
2022-11-09T05:46:21.467Z,9.10
2022-11-09T05:48:50.417Z,9.10
2022-11-09T05:51:17.245Z,9.10
2022-11-09T05:53:46.653Z,9.10
2022-11-09T05:56:14.272Z,9.10
2022-11-09T05:58:43.596Z,9.20
2022-11-09T06:01:12.141Z,9.10
2022-11-09T06:03:39.084Z,9.10
2022-11-09T06:06:08.884Z,9.10
2022-11-09T06:08:36.162Z,9.10
2022-11-09T06:11:04.700Z,9.10
2022-11-09T06:13:31.535Z,9.10
2022-11-09T06:16:01.315Z,9.10
2022-11-09T06:18:29.718Z,9.20
2022-11-09T06:20:58.282Z,9.10
2022-11-09T06:23:29.313Z,9.10
2022-11-09T06:26:03.265Z,9.10
2022-11-09T06:28:30.046Z,9.10
2022-11-09T06:31:00.513Z,9.20
2022-11-09T06:33:27.516Z,9.10
2022-11-09T06:35:56.460Z,9.10
2022-11-09T06:38:23.944Z,9.10
2022-11-09T06:40:56.606Z,9.10
2022-11-09T06:43:23.705Z,9.10
2022-11-09T06:45:50.659Z,9.10
2022-11-09T06:48:17.333Z,9.10
2022-11-09T06:50:46.517Z,9.10
2022-11-09T06:53:16.659Z,9.10
2022-11-09T06:55:47.371Z,9.10
2022-11-09T06:58:17.221Z,9.10
2022-11-09T07:00:44.287Z,9.10
2022-11-09T07:03:17.762Z,9.10
2022-11-09T07:05:44.847Z,9.10
2022-11-09T07:08:14.188Z,9.10
2022-11-09T07:10:43.247Z,9.10
2022-11-09T07:13:10.152Z,9.20
2022-11-09T07:15:39.477Z,9.30
2022-11-09T07:18:07.753Z,9.20
2022-11-09T07:20:36.599Z,9.30
2022-11-09T07:23:05.334Z,9.30
2022-11-09T07:25:32.769Z,9.40
2022-11-09T07:28:04.445Z,9.40
2022-11-09T07:30:31.210Z,9.40
2022-11-09T07:33:09.051Z,9.50
2022-11-09T07:35:36.670Z,9.40
2022-11-09T07:38:05.747Z,9.40
2022-11-09T07:40:32.436Z,9.50
2022-11-09T07:43:00.219Z,9.50
2022-11-09T07:45:29.680Z,9.50
2022-11-09T07:47:59.939Z,9.50
2022-11-09T07:50:27.059Z,9.60
2022-11-09T07:52:56.074Z,9.60
2022-11-09T07:55:23.298Z,9.60
2022-11-09T07:57:56.862Z,9.60
2022-11-09T08:00:24.095Z,9.60
2022-11-09T08:02:53.364Z,9.60
2022-11-09T08:05:20.243Z,9.70
2022-11-09T08:07:47.075Z,9.70
2022-11-09T08:10:14.066Z,9.70
2022-11-09T08:12:40.765Z,9.70
2022-11-09T08:15:10.598Z,9.70
2022-11-09T08:17:41.784Z,9.70
2022-11-09T08:20:13.497Z,9.70
2022-11-09T08:22:44.006Z,9.80
2022-11-09T08:25:13.140Z,9.80
2022-11-09T08:27:42.615Z,9.80
2022-11-09T08:30:14.576Z,9.80
2022-11-09T08:32:42.124Z,9.80
2022-11-09T08:35:10.262Z,9.90
2022-11-09T08:37:37.971Z,9.90
2022-11-09T08:40:07.833Z,9.90
2022-11-09T08:42:34.580Z,9.90
2022-11-09T08:45:08.685Z,9.90
2022-11-09T08:47:35.407Z,10.00
2022-11-09T08:50:04.359Z,10.10
2022-11-09T08:52:31.237Z,10.10
2022-11-09T08:55:00.367Z,10.10
2022-11-09T08:57:35.141Z,10.10
2022-11-09T09:00:04.298Z,10.20
2022-11-09T09:02:30.997Z,10.20
2022-11-09T09:04:57.695Z,10.30
2022-11-09T09:07:24.468Z,10.30
2022-11-09T09:09:51.237Z,10.40
2022-11-09T09:12:18.878Z,10.40
2022-11-09T09:14:45.603Z,10.40
2022-11-09T09:17:12.332Z,10.40
2022-11-09T09:19:39.070Z,10.50
2022-11-09T09:22:07.373Z,10.50
2022-11-09T09:24:35.288Z,10.60
2022-11-09T09:27:02.909Z,10.60
2022-11-09T09:29:29.614Z,10.60
2022-11-09T09:31:56.366Z,10.70
2022-11-09T09:34:23.113Z,10.70
2022-11-09T09:36:55.114Z,10.80
2022-11-09T09:39:21.865Z,10.80
2022-11-09T09:42:03.045Z,10.90
2022-11-09T09:44:40.059Z,11.00
2022-11-09T09:47:15.470Z,11.00
2022-11-09T09:50:04.331Z,11.00
2022-11-09T09:53:04.767Z,11.00
2022-11-09T09:55:42.399Z,11.10
2022-11-09T09:58:12.175Z,11.10
2022-11-09T10:00:41.136Z,11.20
2022-11-09T10:03:14.568Z,11.20
2022-11-09T10:06:03.872Z,11.30
2022-11-09T10:08:55.165Z,11.20
2022-11-09T10:11:28.090Z,11.20
2022-11-09T10:14:13.813Z,11.20
2022-11-09T10:17:07.862Z,11.30
2022-11-09T10:19:58.988Z,11.40
2022-11-09T10:22:37.683Z,11.50
2022-11-09T10:28:01.614Z,11.60
2022-11-09T10:30:30.878Z,11.70
2022-11-09T10:33:06.361Z,11.60
2022-11-09T10:35:38.342Z,11.60
2022-11-09T10:38:13.153Z,11.60
2022-11-09T10:40:51.665Z,11.60
2022-11-09T10:43:18.445Z,11.70
2022-11-09T10:45:45.605Z,11.70
2022-11-09T10:48:15.482Z,11.80
2022-11-09T10:50:48.501Z,11.80
2022-11-09T10:53:22.066Z,11.80
2022-11-09T10:56:21.364Z,11.90
2022-11-09T10:58:51.826Z,11.90
2022-11-09T11:01:25.450Z,12.00
2022-11-09T11:03:55.523Z,12.00
2022-11-09T11:06:22.195Z,12.10
2022-11-09T11:08:57.863Z,12.10
2022-11-09T11:11:37.454Z,12.10
2022-11-09T11:14:22.692Z,12.10
2022-11-09T11:16:51.051Z,12.00
2022-11-09T11:19:36.679Z,12.10
2022-11-09T11:22:12.178Z,12.10
2022-11-09T11:24:45.028Z,12.20
2022-11-09T11:27:16.973Z,12.20
2022-11-09T11:29:46.647Z,12.20
2022-11-09T11:32:17.387Z,12.30
2022-11-09T11:34:59.754Z,12.30
2022-11-09T11:37:43.520Z,12.30
2022-11-09T11:40:24.014Z,12.30
2022-11-09T11:43:02.864Z,12.30
2022-11-09T11:45:41.291Z,12.40
2022-11-09T11:48:21.891Z,12.50
2022-11-09T11:51:02.511Z,12.50
2022-11-09T11:53:43.579Z,12.50
2022-11-09T11:56:34.883Z,12.50
2022-11-09T11:59:18.077Z,12.60
2022-11-09T12:01:51.763Z,12.60
2022-11-09T12:04:35.701Z,12.60
2022-11-09T12:07:28.594Z,12.70
2022-11-09T12:10:10.466Z,12.70
2022-11-09T12:12:52.091Z,12.60
2022-11-09T12:15:24.320Z,12.70
2022-11-09T12:17:54.184Z,12.70
2022-11-09T12:20:40.729Z,12.70
2022-11-09T12:23:33.616Z,12.70
2022-11-09T12:26:24.541Z,12.70
2022-11-09T12:29:17.976Z,12.80
2022-11-09T12:32:05.814Z,12.80
2022-11-09T12:34:57.760Z,12.80
2022-11-09T12:37:29.401Z,12.90
2022-11-09T12:40:04.929Z,12.90
2022-11-09T12:42:42.488Z,12.90
2022-11-09T12:45:09.488Z,12.90
2022-11-09T12:47:40.233Z,13.00
2022-11-09T12:50:11.294Z,13.00
2022-11-09T12:52:40.619Z,13.00
2022-11-09T12:55:07.656Z,13.10
2022-11-09T12:57:39.359Z,13.00
2022-11-09T13:00:14.460Z,13.00
2022-11-09T13:02:55.126Z,13.00
2022-11-09T13:05:37.905Z,13.00
2022-11-09T13:08:15.416Z,13.00
2022-11-09T13:10:49.352Z,13.00
2022-11-09T13:13:22.586Z,13.00
2022-11-09T13:16:33.670Z,12.90
2022-11-09T13:19:02.791Z,12.80
2022-11-09T13:21:29.447Z,12.70
2022-11-09T13:24:02.185Z,12.80
2022-11-09T13:26:32.874Z,12.80
2022-11-09T13:29:22.845Z,12.80
2022-11-09T13:32:10.612Z,12.80
2022-11-09T13:34:47.263Z,12.80
2022-11-09T13:37:39.288Z,12.80
2022-11-09T13:40:30.903Z,12.90
2022-11-09T13:43:02.813Z,12.90
2022-11-09T13:45:32.358Z,12.90
2022-11-09T13:48:03.778Z,12.90
2022-11-09T13:50:31.418Z,12.90
2022-11-09T13:53:01.508Z,12.90
2022-11-09T13:55:38.136Z,12.80
2022-11-09T13:58:27.937Z,12.80
2022-11-09T14:00:57.553Z,12.90
2022-11-09T14:03:29.030Z,12.90
2022-11-09T14:06:02.171Z,12.90
2022-11-09T14:08:40.020Z,12.90
2022-11-09T14:11:25.731Z,12.90
2022-11-09T14:14:15.413Z,12.90
2022-11-09T14:16:57.119Z,12.90
2022-11-09T14:19:54.293Z,12.90
2022-11-09T14:22:21.555Z,12.90
2022-11-09T14:24:48.330Z,12.90
2022-11-09T14:27:19.190Z,12.90
2022-11-09T14:29:50.186Z,12.90
2022-11-09T14:32:31.235Z,12.80
2022-11-09T14:35:20.015Z,12.90
2022-11-09T14:37:47.432Z,12.80
2022-11-09T14:40:19.038Z,12.80
2022-11-09T14:43:01.902Z,12.80
2022-11-09T14:45:28.701Z,12.70
2022-11-09T14:47:57.808Z,12.70
2022-11-09T14:50:35.651Z,12.70
2022-11-09T14:53:03.152Z,12.70
2022-11-09T14:55:39.857Z,12.60
2022-11-09T14:58:09.371Z,12.70
2022-11-09T15:00:43.184Z,12.70
2022-11-09T15:03:22.775Z,12.70
2022-11-09T15:05:49.559Z,12.70
2022-11-09T15:08:26.966Z,12.70
2022-11-09T15:10:56.298Z,12.60
2022-11-09T15:13:38.022Z,12.70
2022-11-09T15:16:07.510Z,12.70
2022-11-09T15:18:35.692Z,12.70
2022-11-09T15:21:18.745Z,12.70
2022-11-09T15:23:50.259Z,12.70
2022-11-09T15:26:34.620Z,12.60
2022-11-09T15:29:04.687Z,12.60
2022-11-09T15:31:31.616Z,12.60
2022-11-09T15:33:58.429Z,12.60
2022-11-09T15:36:30.868Z,12.70
2022-11-09T15:39:18.153Z,12.60
2022-11-09T15:41:47.080Z,12.60
2022-11-09T15:44:17.253Z,12.50
2022-11-09T15:46:49.822Z,12.60
2022-11-09T15:49:29.421Z,12.50
2022-11-09T15:51:56.217Z,12.50
2022-11-09T15:54:23.483Z,12.50
2022-11-09T15:56:52.963Z,12.60
2022-11-09T15:59:22.147Z,12.50
2022-11-09T16:01:49.071Z,12.50
2022-11-09T16:04:15.909Z,12.50
2022-11-09T16:06:46.376Z,12.50
2022-11-09T16:09:16.343Z,12.50
2022-11-09T16:11:43.043Z,12.50
2022-11-09T16:14:09.749Z,12.50
2022-11-09T16:16:36.531Z,12.40
2022-11-09T16:19:08.181Z,12.40
2022-11-09T16:21:35.213Z,12.40
2022-11-09T16:24:01.936Z,12.40
2022-11-09T16:26:28.704Z,12.40
2022-11-09T16:28:55.647Z,12.40
2022-11-09T16:31:48.351Z,12.30
2022-11-09T16:34:09.136Z,12.30
2022-11-09T16:36:38.863Z,12.30
2022-11-09T16:39:09.415Z,12.30
2022-11-09T16:41:40.886Z,12.30
2022-11-09T16:44:09.819Z,12.30
2022-11-09T16:46:36.525Z,12.40
2022-11-09T16:49:03.556Z,12.30
2022-11-09T16:51:30.377Z,12.10
2022-11-09T16:53:59.252Z,12.20
2022-11-09T16:56:28.157Z,12.20
2022-11-09T16:58:57.244Z,12.30
2022-11-09T17:01:24.153Z,12.20
2022-11-09T17:03:50.926Z,12.20
2022-11-09T17:06:17.813Z,12.20
2022-11-09T17:08:44.508Z,12.10
2022-11-09T17:11:13.318Z,12.20
2022-11-09T17:13:42.187Z,12.10
2022-11-09T17:16:12.473Z,12.10
2022-11-09T17:18:39.529Z,12.10
2022-11-09T17:21:14.316Z,12.00
2022-11-09T17:23:41.962Z,12.10
2022-11-09T17:26:08.981Z,12.10
2022-11-09T17:28:40.059Z,12.00
2022-11-09T17:31:15.179Z,12.00
2022-11-09T17:33:41.979Z,11.90
2022-11-09T17:36:14.740Z,11.90
2022-11-09T17:38:41.713Z,11.90
2022-11-09T17:41:09.245Z,11.90
2022-11-09T17:43:37.130Z,11.80
2022-11-09T17:46:08.378Z,11.80
2022-11-09T17:48:35.628Z,11.80
2022-11-09T17:51:02.548Z,11.70
2022-11-09T17:53:32.116Z,11.70
2022-11-09T17:56:00.120Z,11.80
2022-11-09T17:58:26.826Z,11.80
2022-11-09T18:00:53.628Z,11.70
2022-11-09T18:03:20.496Z,11.80
2022-11-09T18:05:47.382Z,11.70
2022-11-09T18:08:16.820Z,11.70
2022-11-09T18:10:48.323Z,11.70
2022-11-09T18:13:15.024Z,11.70
2022-11-09T18:15:43.995Z,11.60
2022-11-09T18:18:10.697Z,11.60
2022-11-09T18:20:38.662Z,11.60
2022-11-09T18:23:05.405Z,11.60
2022-11-09T18:25:36.738Z,11.60
2022-11-09T18:28:03.574Z,11.60
2022-11-09T18:30:30.500Z,11.60
2022-11-09T18:32:59.903Z,11.60
2022-11-09T18:35:26.666Z,11.60
2022-11-09T18:37:55.738Z,11.60
2022-11-09T18:40:24.969Z,11.60
2022-11-09T18:42:51.746Z,11.60
2022-11-09T18:45:21.834Z,11.60
2022-11-09T18:47:49.660Z,11.60
2022-11-09T18:50:19.657Z,11.60
2022-11-09T18:52:46.346Z,11.60
2022-11-09T18:55:15.559Z,11.50
2022-11-09T18:57:42.343Z,11.60
2022-11-09T19:00:09.738Z,11.50
2022-11-09T19:02:36.784Z,11.40
2022-11-09T19:05:06.836Z,11.30
2022-11-09T19:07:33.550Z,11.40
2022-11-09T19:10:00.266Z,11.30
2022-11-09T19:12:32.574Z,11.30
2022-11-09T19:14:59.336Z,11.30
2022-11-09T19:17:26.145Z,11.40
2022-11-09T19:19:55.065Z,11.30
2022-11-09T19:22:21.881Z,11.20
2022-11-09T19:24:48.869Z,11.20
2022-11-09T19:27:15.670Z,11.20
2022-11-09T19:29:42.453Z,11.20
2022-11-09T19:32:09.241Z,11.20
2022-11-09T19:34:35.951Z,11.20
2022-11-09T19:37:02.658Z,11.20
2022-11-09T19:39:34.753Z,11.20
2022-11-09T19:42:02.813Z,11.10
2022-11-09T19:44:29.613Z,11.00
2022-11-09T19:46:56.440Z,11.00
2022-11-09T19:49:23.228Z,11.00
2022-11-09T19:51:49.956Z,10.90
2022-11-09T19:54:19.091Z,11.00
2022-11-09T19:56:45.822Z,11.00
2022-11-09T19:59:14.484Z,11.00
2022-11-09T20:01:41.734Z,11.00
2022-11-09T20:04:10.498Z,11.00
2022-11-09T20:06:39.766Z,11.00
2022-11-09T20:09:06.663Z,11.00
2022-11-09T20:11:51.764Z,11.00
2022-11-09T20:14:18.614Z,11.00
2022-11-09T20:16:48.506Z,11.10
2022-11-09T20:19:20.117Z,11.10
2022-11-09T20:21:46.828Z,11.00
2022-11-09T20:24:14.422Z,10.90
2022-11-09T20:26:44.085Z,10.90
2022-11-09T20:29:10.876Z,10.90
2022-11-09T20:31:37.644Z,10.90
2022-11-09T20:34:06.670Z,10.90
2022-11-09T20:36:36.492Z,10.80
2022-11-09T20:39:06.009Z,10.80
2022-11-09T20:41:33.359Z,10.80
2022-11-09T20:44:00.065Z,10.80
2022-11-09T20:46:28.947Z,10.80
2022-11-09T20:49:00.834Z,10.80
2022-11-09T20:51:28.764Z,10.80
2022-11-09T20:54:01.117Z,10.80
2022-11-09T20:56:34.846Z,10.70
2022-11-09T20:59:03.782Z,10.70
2022-11-09T21:01:33.213Z,10.70
2022-11-09T21:04:00.155Z,10.70
2022-11-09T21:06:26.955Z,10.70
2022-11-09T21:08:57.117Z,10.70
2022-11-09T21:11:24.008Z,10.60
2022-11-09T21:13:51.370Z,10.60
2022-11-09T21:16:18.567Z,10.60
2022-11-09T21:18:47.600Z,10.60
2022-11-09T21:21:15.503Z,10.60
2022-11-09T21:24:00.789Z,10.60
2022-11-09T21:26:46.426Z,10.60
2022-11-09T21:29:37.352Z,10.60
2022-11-09T21:32:06.830Z,10.60
2022-11-09T21:34:40.682Z,10.60
2022-11-09T21:37:09.652Z,10.60
2022-11-09T21:39:36.364Z,10.50
2022-11-09T21:42:03.623Z,10.50
2022-11-09T21:44:33.030Z,10.40
2022-11-09T21:47:00.108Z,10.40
2022-11-09T21:49:26.893Z,10.40
2022-11-09T21:51:56.108Z,10.40
2022-11-09T21:54:22.839Z,10.30
2022-11-09T21:56:49.779Z,10.30
2022-11-09T21:59:16.620Z,10.30
2022-11-09T22:01:44.036Z,10.30
2022-11-09T22:04:10.793Z,10.40
2022-11-09T22:06:39.027Z,10.30
2022-11-09T22:09:06.587Z,10.30
2022-11-09T22:11:51.608Z,10.30
2022-11-09T22:14:38.889Z,10.20
2022-11-09T22:17:08.628Z,10.30
2022-11-09T22:19:56.914Z,10.30
2022-11-09T22:22:23.655Z,10.20
2022-11-09T22:24:50.374Z,10.10
2022-11-09T22:27:17.062Z,10.10
2022-11-09T22:29:43.805Z,10.00
2022-11-09T22:32:10.486Z,10.00
2022-11-09T22:34:37.199Z,10.00
2022-11-09T22:37:04.277Z,10.00
2022-11-09T22:39:31.046Z,10.00
2022-11-09T22:42:02.147Z,10.00
2022-11-09T22:44:28.829Z,9.90
2022-11-09T22:46:55.688Z,9.90
2022-11-09T22:49:25.065Z,10.00
2022-11-09T22:51:53.345Z,9.90
2022-11-09T22:54:23.215Z,10.00
2022-11-09T22:56:49.936Z,10.00
2022-11-09T22:59:16.629Z,9.90
2022-11-09T23:01:43.450Z,9.90
2022-11-09T23:04:10.638Z,9.90
2022-11-09T23:06:40.005Z,9.90
2022-11-09T23:09:09.173Z,9.90
2022-11-09T23:11:35.897Z,9.80
2022-11-09T23:14:02.649Z,9.90
2022-11-09T23:16:33.948Z,9.90
2022-11-09T23:19:00.677Z,9.80
2022-11-09T23:21:29.287Z,9.80
2022-11-09T23:24:04.822Z,9.90
2022-11-09T23:26:32.664Z,9.70
2022-11-09T23:29:01.913Z,9.70
2022-11-09T23:31:33.224Z,9.70
2022-11-09T23:34:07.363Z,9.70
2022-11-09T23:36:36.532Z,9.70
2022-11-09T23:39:05.712Z,9.70
2022-11-09T23:41:35.029Z,9.70
2022-11-09T23:44:01.775Z,9.70
2022-11-09T23:46:30.999Z,9.70
2022-11-09T23:48:57.739Z,9.70
2022-11-09T23:51:24.717Z,9.70
2022-11-09T23:53:53.716Z,9.60
2022-11-09T23:56:21.218Z,9.60
2022-11-09T23:58:51.542Z,9.50
